DRK weather

Drake Bay Airport
Puntarenas, Puntarenas, Costa Rica

Public forecast

Using degrees Celsius for public forecast. Weather courtesy of forecast.io.

Closest aviation weather report (METAR) to Drake Bay Airport

Report is more than 6 hours old.

Closest report is Playa Blanca (J. W. Berteus) Airport, 13.1 nm (24.2 km) ESE. Retrieved 2010/08/10 01:00 UTC (10 years ago):

MRPB 100100Z 07003KT 9999 FEW020 BKN120 25/24 A2981

Closest aviation forecast (TAF) to Drake Bay Airport

Forecast is more than 6 hours old.

Closest forecast is Enrique Malek International Airport, 74.3 nm (137.6 km) ESE. Retrieved 2020-02-21 00:03 UTC (10 hours ago):

TAF TAF MPDA 202300Z 2100/2112 20008KT 9999 FEW012 SCT080 BECMG 2106/2110 28006KT TEMPO 2110/2112 00000KT